Time;durP1;ratioP1;P1;durP2;ratioP2;P2;SDS_P1;SDS_P2;PMS_P1;PMS_P2;Temp;Humidity;BMP_temperature;BMP_pressure;BME280_temperature;BME280_humidity;BME280_pressure;Samples;Min_cycle;Max_cycle;Signal;HPM_P1;HPM_P2
2023/07/13 00:01:29;;;;;;;3.60;2.08;;;16.00;1.00;;;;;;5014692;28;20053;-64
2023/07/13 00:03:59;;;;;;;4.32;1.50;;;16.00;74.30;;;;;;5015591;28;20410;-63
2023/07/13 00:06:25;;;;;;;5.80;2.13;;;16.00;99.90;;;;;;5015637;28;20450;-63
2023/07/13 00:08:50;;;;;;;3.28;1.83;;;15.90;99.90;;;;;;5015801;28;20312;-64
2023/07/13 00:11:17;;;;;;;2.70;1.60;;;15.90;99.90;;;;;;5015869;28;20104;-64
2023/07/13 00:13:44;;;;;;;5.25;1.98;;;15.90;1.50;;;;;;5014628;28;20096;-63
2023/07/13 00:16:11;;;;;;;5.50;1.48;;;15.90;1.00;;;;;;5015694;28;20045;-63
2023/07/13 00:18:37;;;;;;;6.22;2.00;;;15.90;1.00;;;;;;5015388;28;20042;-64
2023/07/13 00:21:06;;;;;;;6.13;2.15;;;15.90;99.90;;;;;;5015241;28;20041;-64
2023/07/13 00:23:37;;;;;;;4.63;1.75;;;15.90;99.90;;;;;;5014392;28;20042;-64
2023/07/13 00:26:04;;;;;;;;;;;15.80;99.90;;;;;;5014409;28;20120;-64
2023/07/13 00:28:30;;;;;;;9.55;2.15;;;15.80;1.00;;;;;;5015601;28;19924;-64
2023/07/13 00:30:55;;;;;;;5.28;1.73;;;15.80;99.90;;;;;;5015383;28;20041;-64
2023/07/13 00:33:22;;;;;;;3.83;1.60;;;15.90;99.90;;;;;;5014566;28;20030;-63
2023/07/13 00:35:48;;;;;;;5.18;1.80;;;15.90;99.90;;;;;;5014456;28;20049;-63
2023/07/13 00:38:14;;;;;;;5.82;1.90;;;15.90;99.90;;;;;;5015009;28;20038;-64
2023/07/13 00:40:40;;;;;;;7.43;1.90;;;15.90;99.90;;;;;;4997432;28;20073;-64
2023/07/13 00:43:21;;;;;;;5.63;2.20;;;15.90;99.90;;;;;;5015089;28;20092;-64
2023/07/13 00:45:47;;;;;;;3.95;1.52;;;15.90;99.90;;;;;;5015155;28;20446;-64
2023/07/13 00:48:16;;;;;;;11.70;2.50;;;15.90;99.90;;;;;;5015116;28;20045;-64
2023/07/13 00:50:45;;;;;;;4.25;1.42;;;16.00;99.90;;;;;;5013604;28;20045;-64
2023/07/13 00:53:11;;;;;;;6.78;1.70;;;16.00;99.90;;;;;;5015060;28;20052;-64
2023/07/13 00:55:38;;;;;;;6.35;1.80;;;16.00;99.90;;;;;;5015015;28;20045;-64
2023/07/13 00:58:06;;;;;;;8.93;2.20;;;16.00;99.90;;;;;;5014902;28;20068;-64
2023/07/13 01:00:34;;;;;;;3.35;1.80;;;16.20;99.90;;;;;;5013347;28;20068;-64
2023/07/13 01:03:04;;;;;;;6.25;2.13;;;16.10;1.00;;;;;;5014510;28;20062;-64
2023/07/13 01:05:31;;;;;;;7.55;1.92;;;16.00;1.00;;;;;;5014569;28;20131;-64
2023/07/13 01:07:58;;;;;;;8.13;2.15;;;16.10;1.00;;;;;;5014757;28;20045;-64
2023/07/13 01:10:25;;;;;;;5.72;2.08;;;16.10;1.00;;;;;;5014672;28;20037;-64
2023/07/13 01:12:52;;;;;;;6.85;2.20;;;16.20;99.90;;;;;;5014682;28;20048;-64
2023/07/13 01:15:36;;;;;;;6.35;2.17;;;16.20;1.00;;;;;;5014320;28;20056;-64
2023/07/13 01:18:03;;;;;;;4.90;1.88;;;16.10;1.00;;;;;;5014559;28;20050;-64
2023/07/13 01:20:29;;;;;;;4.20;1.67;;;16.00;1.00;;;;;;5014505;28;20072;-64
2023/07/13 01:22:55;;;;;;;6.35;2.17;;;16.20;1.00;;;;;;5014044;28;20046;-64
2023/07/13 01:25:21;;;;;;;6.05;2.25;;;16.10;1.00;;;;;;5013150;28;20057;-64
2023/07/13 01:27:46;;;;;;;6.32;2.20;;;16.20;1.00;;;;;;5013975;28;20030;-64
2023/07/13 01:30:13;;;;;;;9.07;2.55;;;16.10;1.00;;;;;;5014010;28;20129;-64
2023/07/13 01:32:41;;;;;;;7.80;1.95;;;16.10;1.00;;;;;;5014314;28;20462;-64
2023/07/13 01:35:08;;;;;;;10.65;2.33;;;16.20;1.00;;;;;;5012978;28;20058;-64
2023/07/13 01:37:35;;;;;;;8.18;1.80;;;16.10;1.00;;;;;;5014139;28;20042;-64
2023/07/13 01:40:03;;;;;;;12.48;1.95;;;15.90;1.00;;;;;;5014125;28;20049;-64
2023/07/13 01:42:29;;;;;;;3.22;2.00;;;16.00;1.00;;;;;;5012596;28;20037;-64
2023/07/13 01:44:54;;;;;;;3.85;1.70;;;15.90;1.00;;;;;;5013769;28;20045;-64
2023/07/13 01:47:20;;;;;;;8.00;2.17;;;16.00;1.00;;;;;;5014046;28;20041;-64
2023/07/13 01:49:47;;;;;;;9.35;2.33;;;16.10;1.00;;;;;;5013716;28;20038;-64
2023/07/13 01:52:13;;;;;;;7.00;2.15;;;16.00;1.00;;;;;;5012717;28;20082;-64
2023/07/13 01:54:38;;;;;;;6.43;1.80;;;16.10;1.00;;;;;;5013736;28;20135;-64
2023/07/13 01:57:04;;;;;;;6.63;2.25;;;16.20;1.00;;;;;;5012313;28;20629;-64
2023/07/13 01:59:30;;;;;;;6.05;2.22;;;16.20;1.00;;;;;;5012692;28;20065;-65
2023/07/13 02:01:55;;;;;;;9.55;2.20;;;16.10;1.00;;;;;;5013633;28;20478;-65
2023/07/13 02:04:21;;;;;;;5.55;1.90;;;16.10;1.00;;;;;;5013259;28;20189;-64
2023/07/13 02:06:47;;;;;;;3.92;1.58;;;15.90;1.00;;;;;;5013730;28;20493;-65
2023/07/13 02:09:12;;;;;;;6.10;1.98;;;16.00;1.00;;;;;;5013430;28;20044;-64
2023/07/13 02:11:38;;;;;;;7.63;2.10;;;16.00;1.00;;;;;;5012507;28;20057;-64
2023/07/13 02:14:04;;;;;;;3.47;1.67;;;16.10;1.00;;;;;;5013379;28;20037;-64
2023/07/13 02:16:30;;;;;;;5.78;2.17;;;16.00;1.00;;;;;;5013325;28;20500;-64
2023/07/13 02:18:56;;;;;;;7.57;1.80;;;16.20;1.00;;;;;;5012033;28;20128;-64
2023/07/13 02:21:23;;;;;;;6.63;1.80;;;16.00;1.00;;;;;;5013475;28;20117;-65
2023/07/13 02:23:49;;;;;;;5.03;2.30;;;16.10;5.50;;;;;;5013550;28;20100;-64
2023/07/13 02:26:15;;;;;;;5.45;2.20;;;16.10;1.00;;;;;;5011943;28;20034;-64
2023/07/13 02:28:41;;;;;;;5.90;1.88;;;16.10;1.00;;;;;;5013448;28;20042;-64
2023/07/13 02:31:09;;;;;;;6.95;2.30;;;16.10;1.00;;;;;;5012096;28;20550;-64
2023/07/13 02:33:35;;;;;;;5.82;2.03;;;16.20;1.00;;;;;;5011837;28;20433;-64
2023/07/13 02:36:01;;;;;;;5.65;2.05;;;16.00;6.10;;;;;;5013324;28;20108;-64
2023/07/13 02:38:27;;;;;;;7.63;2.50;;;15.60;2.20;;;;;;5013046;28;20410;-64
2023/07/13 02:40:53;;;;;;;9.30;2.20;;;16.00;1.00;;;;;;5011700;28;20116;-64
2023/07/13 02:43:18;;;;;;;3.47;1.90;;;16.10;15.80;;;;;;5013265;28;20034;-64
2023/07/13 02:45:45;;;;;;;7.28;2.05;;;16.00;9.60;;;;;;5012968;28;20124;-64
2023/07/13 02:48:13;;;;;;;9.23;2.60;;;16.00;11.80;;;;;;5013241;28;20494;-64
2023/07/13 02:50:39;;;;;;;9.23;2.22;;;15.90;23.40;;;;;;5012857;28;20046;-64
2023/07/13 02:53:04;;;;;;;4.90;2.00;;;15.90;23.20;;;;;;5012840;28;20034;-64
2023/07/13 02:55:30;;;;;;;10.38;3.10;;;15.90;23.00;;;;;;5013162;28;20038;-64
2023/07/13 02:57:56;;;;;;;5.85;2.33;;;15.80;38.90;;;;;;5014904;28;20403;-64
2023/07/13 03:00:22;;;;;;;8.80;2.20;;;15.90;35.10;;;;;;5017104;28;20073;-64
2023/07/13 03:02:48;;;;;;;8.30;2.08;;;15.80;28.90;;;;;;5016820;28;20058;-64
2023/07/13 03:05:15;;;;;;;8.02;2.80;;;15.80;40.20;;;;;;5017127;28;20371;-64
2023/07/13 03:07:40;;;;;;;10.75;2.40;;;15.80;36.70;;;;;;5017046;28;20414;-64
2023/07/13 03:10:07;;;;;;;5.45;2.15;;;15.70;57.90;;;;;;5017021;28;20037;-64
2023/07/13 03:12:32;;;;;;;7.70;2.40;;;15.70;45.40;;;;;;5016917;28;20052;-64
2023/07/13 03:14:58;;;;;;;7.57;2.58;;;15.70;50.80;;;;;;5016605;28;20472;-64
2023/07/13 03:17:24;;;;;;;7.47;2.35;;;15.70;59.20;;;;;;5015597;28;20050;-64
2023/07/13 03:19:50;;;;;;;5.10;2.25;;;15.60;51.40;;;;;;5016780;28;20038;-64
2023/07/13 03:22:19;;;;;;;6.00;2.30;;;15.60;57.60;;;;;;5016668;28;20474;-64
2023/07/13 03:24:45;;;;;;;6.15;2.42;;;15.60;59.10;;;;;;5016697;28;20045;-64
2023/07/13 03:27:11;;;;;;;7.60;2.53;;;15.60;67.50;;;;;;5016576;28;20042;-64
2023/07/13 03:29:37;;;;;;;6.40;2.33;;;15.70;56.50;;;;;;5016598;28;20440;-64
2023/07/13 03:32:04;;;;;;;5.15;2.35;;;15.60;62.50;;;;;;5016534;28;20128;-64
2023/07/13 03:34:30;;;;;;;6.85;2.35;;;15.60;58.40;;;;;;5016272;28;20046;-65
2023/07/13 03:36:56;;;;;;;8.65;2.40;;;15.60;60.40;;;;;;5016469;28;20034;-64
2023/07/13 03:39:22;;;;;;;8.07;2.30;;;15.60;67.00;;;;;;5016461;28;20474;-64
2023/07/13 03:41:48;;;;;;;9.63;2.20;;;15.50;66.50;;;;;;5016302;28;20069;-64
2023/07/13 03:44:15;;;;;;;6.00;2.35;;;15.50;61.00;;;;;;5016003;28;20564;-64
2023/07/13 03:46:41;;;;;;;8.40;2.17;;;15.50;64.40;;;;;;5016328;28;20168;-64
2023/07/13 03:49:07;;;;;;;6.97;2.42;;;15.50;63.30;;;;;;5016180;28;20502;-64
2023/07/13 03:51:32;;;;;;;4.85;2.17;;;15.50;70.20;;;;;;5016180;28;20038;-64
2023/07/13 03:53:58;;;;;;;5.65;2.33;;;15.40;69.00;;;;;;5016134;28;20038;-64
2023/07/13 03:56:23;;;;;;;7.70;2.50;;;15.40;65.60;;;;;;5016093;28;20509;-65
2023/07/13 03:58:50;;;;;;;8.60;2.00;;;15.40;70.90;;;;;;5016086;28;20046;-64
2023/07/13 04:01:18;;;;;;;8.98;2.40;;;15.70;71.10;;;;;;5015615;28;20084;-64
2023/07/13 04:03:46;;;;;;;4.13;2.05;;;15.40;71.40;;;;;;5015471;28;20057;-64
2023/07/13 04:06:23;;;;;;;7.10;1.90;;;15.40;74.60;;;;;;5014432;28;20116;-64
2023/07/13 04:08:51;;;;;;;8.50;2.60;;;15.50;77.90;;;;;;5015544;28;20576;-64
2023/07/13 04:11:18;;;;;;;5.50;2.08;;;15.40;74.20;;;;;;5015908;28;20034;-64
2023/07/13 04:13:44;;;;;;;5.70;2.35;;;15.40;76.10;;;;;;5015824;28;20076;-64
2023/07/13 04:16:10;;;;;;;6.85;2.50;;;15.40;79.80;;;;;;5014513;28;20104;-64
2023/07/13 04:18:36;;;;;;;8.13;2.30;;;15.50;77.90;;;;;;5015726;28;20042;-64
2023/07/13 04:21:02;;;;;;;5.55;2.30;;;15.50;77.30;;;;;;5015349;28;20073;-64
2023/07/13 04:23:27;;;;;;;6.85;2.45;;;15.50;82.70;;;;;;5015590;28;20081;-64
2023/07/13 04:25:53;;;;;;;9.48;2.30;;;15.50;77.10;;;;;;5015495;28;20041;-64
2023/07/13 04:28:24;;;;;;;11.73;2.60;;;15.50;77.30;;;;;;5015516;28;20478;-64
2023/07/13 04:30:50;;;;;;;5.82;2.60;;;15.50;83.30;;;;;;5015216;28;20044;-64
2023/07/13 04:33:16;;;;;;;6.65;2.22;;;15.60;84.60;;;;;;5013934;28;20045;-64
2023/07/13 04:35:43;;;;;;;11.40;2.55;;;15.60;80.30;;;;;;5015386;28;20532;-64
2023/07/13 04:38:11;;;;;;;7.00;2.13;;;15.70;87.40;;;;;;5015047;28;20120;-64
2023/07/13 04:40:37;;;;;;;8.63;2.45;;;15.70;99.90;;;;;;5015326;28;20168;-64
2023/07/13 04:43:03;;;;;;;6.70;2.47;;;16.00;86.60;;;;;;5015154;28;20049;-64
2023/07/13 04:45:28;;;;;;;8.32;2.47;;;15.80;83.60;;;;;;5014799;28;20096;-64
2023/07/13 04:47:55;;;;;;;6.47;2.45;;;;;;;;;;5015100;28;20045;-64
2023/07/13 04:50:23;;;;;;;7.05;2.85;;;15.80;78.10;;;;;;5014815;28;20052;-64
2023/07/13 04:52:51;;;;;;;7.90;2.63;;;15.80;83.60;;;;;;5015071;28;20120;-64
2023/07/13 04:55:17;;;;;;;6.55;2.60;;;15.80;85.10;;;;;;5014707;28;20497;-64
2023/07/13 04:57:44;;;;;;;7.78;2.20;;;15.80;85.80;;;;;;5014942;28;20042;-70
2023/07/13 05:00:11;;;;;;;7.93;2.72;;;15.90;84.60;;;;;;5013278;28;20046;-64
2023/07/13 05:02:38;;;;;;;5.00;2.20;;;15.90;88.70;;;;;;5014567;28;20133;-64
2023/07/13 05:05:05;;;;;;;9.93;2.35;;;16.00;83.40;;;;;;5014803;28;20441;-64
2023/07/13 05:07:32;;;;;;;9.02;2.50;;;16.00;80.90;;;;;;5014439;28;20081;-65
2023/07/13 05:09:59;;;;;;;7.38;2.63;;;16.10;80.70;;;;;;5014412;28;20482;-64
2023/07/13 05:12:25;;;;;;;11.30;3.15;;;16.20;84.90;;;;;;5014304;28;20049;-64
2023/07/13 05:14:51;;;;;;;7.80;2.47;;;16.40;79.80;;;;;;5014614;28;20053;-64
2023/07/13 05:17:16;;;;;;;9.75;3.05;;;16.50;99.90;;;;;;5014641;28;20363;-64
2023/07/13 05:19:42;;;;;;;8.07;2.38;;;16.60;94.70;;;;;;5014128;28;20046;-66
2023/07/13 05:22:08;;;;;;;9.50;2.80;;;16.50;90.90;;;;;;5014244;28;20374;-69
2023/07/13 05:24:34;;;;;;;6.78;2.50;;;16.50;78.70;;;;;;5014492;28;20041;-64
2023/07/13 05:26:59;;;;;;;7.10;2.15;;;16.60;69.90;;;;;;5014429;28;20486;-64
2023/07/13 05:29:25;;;;;;;5.18;2.33;;;16.60;67.60;;;;;;5014364;28;20363;-64
2023/07/13 05:31:51;;;;;;;5.88;2.47;;;16.60;66.90;;;;;;5014292;28;20037;-64
2023/07/13 05:34:17;;;;;;;6.68;2.55;;;16.60;67.00;;;;;;5014349;28;20045;-64
2023/07/13 05:36:43;;;;;;;9.98;2.25;;;16.70;66.90;;;;;;5014250;28;20485;-63
2023/07/13 05:39:08;;;;;;;6.30;2.42;;;16.30;61.20;;;;;;5014261;28;20042;-64
2023/07/13 05:41:35;;;;;;;7.15;2.28;;;16.80;63.10;;;;;;5014102;28;20482;-64
2023/07/13 05:44:01;;;;;;;5.18;2.35;;;16.80;62.20;;;;;;5012529;28;20405;-64
2023/07/13 05:46:26;;;;;;;6.45;2.10;;;16.90;57.50;;;;;;5013730;28;20041;-63
2023/07/13 05:48:52;;;;;;;6.13;2.00;;;16.90;57.50;;;;;;5013722;28;20042;-64
2023/07/13 05:51:18;;;;;;;5.30;2.00;;;17.10;50.10;;;;;;5012464;28;20449;-64
2023/07/13 05:53:43;;;;;;;6.63;2.13;;;17.10;46.40;;;;;;5013939;28;20482;-66
2023/07/13 05:56:09;;;;;;;7.75;2.03;;;17.20;42.20;;;;;;5012332;28;20053;-65
2023/07/13 05:58:35;;;;;;;5.22;2.45;;;17.20;42.80;;;;;;5013851;28;20096;-70
2023/07/13 06:01:06;;;;;;;8.88;2.13;;;17.30;35.40;;;;;;5013709;28;20046;-69
2023/07/13 06:03:33;;;;;;;9.45;2.67;;;17.30;30.30;;;;;;5012069;28;20062;-71
2023/07/13 06:06:00;;;;;;;6.88;2.63;;;17.40;21.20;;;;;;5012248;28;20070;-68
2023/07/13 06:08:26;;;;;;;7.40;2.38;;;17.50;10.90;;;;;;5012780;28;20136;-69
2023/07/13 06:10:52;;;;;;;5.32;2.70;;;17.60;13.00;;;;;;5013680;28;20441;-68
2023/07/13 06:13:19;;;;;;;8.45;2.30;;;17.80;10.50;;;;;;5012312;28;20034;-69
2023/07/13 06:15:48;;;;;;;6.03;2.10;;;;;;;;;;5012325;28;20049;-70
2023/07/13 06:18:15;;;;;;;7.73;2.63;;;17.90;37.90;;;;;;5013522;28;20089;-68
2023/07/13 06:20:40;;;;;;;8.05;2.08;;;17.80;27.90;;;;;;5013160;28;20072;-67
2023/07/13 06:23:06;;;;;;;5.45;2.05;;;18.00;14.80;;;;;;5013037;28;20117;-64
2023/07/13 06:25:31;;;;;;;4.53;2.00;;;18.10;1.00;;;;;;5013131;28;20081;-64
2023/07/13 06:27:57;;;;;;;3.95;2.45;;;18.00;1.00;;;;;;5013397;28;20033;-64
2023/07/13 06:30:23;;;;;;;9.50;2.72;;;18.10;1.00;;;;;;5013368;28;20038;-64
2023/07/13 06:32:49;;;;;;;7.13;2.05;;;18.30;1.00;;;;;;5012242;28;20405;-64
2023/07/13 06:35:15;;;;;;;7.47;2.35;;;18.40;1.00;;;;;;5011794;28;20077;-64
2023/07/13 06:37:41;;;;;;;9.70;2.45;;;18.40;1.00;;;;;;5013313;28;20077;-64
2023/07/13 06:40:07;;;;;;;4.57;2.10;;;18.60;1.00;;;;;;5013295;28;20076;-64
2023/07/13 06:42:33;;;;;;;6.55;1.98;;;18.50;1.00;;;;;;5012982;28;20478;-64
2023/07/13 06:44:58;;;;;;;5.10;2.05;;;18.60;1.00;;;;;;5013240;28;20040;-64
2023/07/13 06:47:24;;;;;;;5.70;1.80;;;18.50;1.00;;;;;;5012902;28;20117;-64
2023/07/13 06:49:49;;;;;;;7.43;2.50;;;18.90;99.90;;;;;;5013086;28;20073;-64
2023/07/13 06:52:15;;;;;;;7.80;1.95;;;18.80;99.90;;;;;;5011911;28;20081;-65
2023/07/13 06:54:41;;;;;;;4.18;2.00;;;19.00;99.90;;;;;;5013162;28;20112;-64
2023/07/13 06:57:07;;;;;;;7.57;2.53;;;;;;;;;;5013089;28;20379;-64
2023/07/13 06:59:33;;;;;;;4.28;1.50;;;;;;;;;;5011583;28;20124;-64
2023/07/13 07:01:59;;;;;;;5.90;1.88;;;;;;;;;;5013013;28;20121;-64
2023/07/13 07:04:25;;;;;;;4.80;2.20;;;19.10;1.00;;;;;;5012578;28;20395;-64
2023/07/13 07:06:51;;;;;;;4.30;1.75;;;19.20;99.90;;;;;;5012740;28;20088;-64
2023/07/13 07:09:17;;;;;;;5.70;2.40;;;19.20;7.60;;;;;;5012996;28;20048;-64
2023/07/13 07:11:42;;;;;;;5.00;1.58;;;19.40;1.00;;;;;;5013013;28;20458;-64
2023/07/13 07:14:09;;;;;;;8.00;2.47;;;;;;;;;;5027825;28;20395;-64
2023/07/13 07:16:35;;;;;;;5.38;1.90;;;;;;;;;;5012917;28;20107;-65
2023/07/13 07:19:01;;;;;;;6.55;1.83;;;19.40;69.70;;;;;;5011664;28;20061;-64
2023/07/13 07:21:27;;;;;;;3.97;2.15;;;19.30;99.90;;;;;;5012767;28;20410;-64
2023/07/13 07:23:53;;;;;;;7.07;2.17;;;19.40;1.00;;;;;;5012884;28;20053;-63
2023/07/13 07:26:19;;;;;;;6.55;1.73;;;19.60;99.90;;;;;;5012567;28;20050;-63
2023/07/13 07:28:44;;;;;;;6.75;2.13;;;19.80;1.00;;;;;;5012522;28;20038;-64
2023/07/13 07:31:10;;;;;;;2.60;1.65;;;19.60;99.90;;;;;;5012750;28;20125;-64
2023/07/13 07:33:36;;;;;;;5.70;1.17;;;19.50;84.50;;;;;;5012678;28;20048;-64
2023/07/13 07:36:03;;;;;;;8.60;2.25;;;19.60;99.90;;;;;;5012666;28;20398;-64
2023/07/13 07:38:28;;;;;;;5.53;1.88;;;19.60;99.90;;;;;;5012454;28;20038;-64
2023/07/13 07:40:54;;;;;;;3.40;1.70;;;19.70;99.90;;;;;;5012703;28;20092;-64
2023/07/13 07:43:20;;;;;;;5.80;1.73;;;19.50;99.90;;;;;;5013077;28;20049;-64
2023/07/13 07:45:46;;;;;;;3.42;1.88;;;19.50;99.90;;;;;;5016244;28;20379;-64
2023/07/13 07:48:12;;;;;;;9.15;2.63;;;19.50;99.90;;;;;;5016164;28;20042;-64
2023/07/13 07:50:38;;;;;;;4.22;1.98;;;19.40;1.00;;;;;;5015954;28;20030;-64
2023/07/13 07:53:07;;;;;;;7.55;2.25;;;19.50;1.00;;;;;;5015743;28;20053;-64
2023/07/13 07:55:37;;;;;;;6.57;2.25;;;19.80;1.00;;;;;;5016085;28;20057;-64
2023/07/13 07:58:03;;;;;;;6.60;2.43;;;19.80;99.90;;;;;;5014717;28;20046;-65
2023/07/13 08:00:31;;;;;;;6.88;2.53;;;20.00;99.90;;;;;;5016013;28;20281;-65
2023/07/13 08:02:57;;;;;;;8.80;2.78;;;19.90;99.90;;;;;;5015599;28;20054;-64
2023/07/13 08:05:23;;;;;;;4.00;2.05;;;19.80;99.90;;;;;;5015703;28;20045;-64
2023/07/13 08:07:49;;;;;;;5.10;1.88;;;19.90;99.90;;;;;;5015858;28;20038;-64
2023/07/13 08:10:15;;;;;;;4.47;1.90;;;19.50;1.00;;;;;;5015831;28;20033;-64
2023/07/13 08:12:41;;;;;;;5.47;2.05;;;;;;;;;;5014529;28;20057;-64
2023/07/13 08:15:10;;;;;;;8.55;2.10;;;;;;;;;;5015731;28;20045;-63
2023/07/13 08:17:36;;;;;;;7.28;2.35;;;18.80;99.90;;;;;;5015709;28;20477;-63
2023/07/13 08:20:02;;;;;;;9.82;2.75;;;;;;;;;;5015546;28;20038;-63
2023/07/13 08:22:28;;;;;;;6.80;2.60;;;;;;;;;;5015320;28;20050;-63
2023/07/13 08:24:56;;;;;;;7.07;2.60;;;18.60;84.30;;;;;;5015289;28;20086;-63
2023/07/13 08:27:27;;;;;;;5.00;2.45;;;18.30;4.30;;;;;;5015594;28;20370;-63
2023/07/13 08:29:53;;;;;;;;;;;18.20;1.10;;;;;;5015906;28;20034;-63
2023/07/13 08:32:20;;;;;;;8.73;3.17;;;18.10;50.30;;;;;;5015485;28;19955;-63
2023/07/13 08:34:46;;;;;;;7.57;2.47;;;18.00;63.40;;;;;;5015440;28;20116;-63
2023/07/13 08:37:12;;;;;;;7.65;2.83;;;18.00;43.60;;;;;;5015396;28;20545;-63
2023/07/13 08:39:38;;;;;;;6.20;2.97;;;18.20;69.60;;;;;;5015412;28;20034;-62
2023/07/13 08:42:13;;;;;;;12.00;4.00;;;17.80;88.90;;;;;;5015236;28;20115;-62
2023/07/13 08:45:05;;;;;;;9.05;2.97;;;17.80;88.60;;;;;;5015258;28;20057;-62
2023/07/13 08:47:35;;;;;;;6.10;2.97;;;18.10;95.90;;;;;;5015148;28;20454;-62
2023/07/13 08:50:01;;;;;;;12.00;3.57;;;17.90;94.70;;;;;;5014804;28;20056;-62
2023/07/13 08:52:36;;;;;;;9.45;3.47;;;17.90;99.90;;;;;;5014936;28;20281;-62
2023/07/13 08:55:36;;;;;;;5.55;3.03;;;17.60;96.70;;;;;;5013598;28;20116;-62
2023/07/13 08:58:10;;;;;;;6.55;2.70;;;17.70;97.50;;;;;;5009838;28;20465;-62
2023/07/13 09:01:03;;;;;;;6.35;2.05;;;17.40;96.30;;;;;;5014962;28;20048;-62
2023/07/13 09:04:06;;;;;;;2.88;1.92;;;17.20;48.60;;;;;;5007367;28;20092;-62
2023/07/13 09:06:54;;;;;;;4.85;2.28;;;17.10;57.50;;;;;;5010609;28;20096;-62
2023/07/13 09:09:33;;;;;;;4.63;2.30;;;17.00;64.20;;;;;;5014776;28;20496;-62
2023/07/13 09:12:17;;;;;;;5.15;2.30;;;17.00;80.00;;;;;;5014476;28;20057;-62
2023/07/13 09:14:52;;;;;;;6.30;2.33;;;16.90;72.30;;;;;;5014308;28;20038;-62
2023/07/13 09:17:24;;;;;;;5.15;2.20;;;16.80;70.10;;;;;;5014624;28;20130;-62
2023/07/13 09:20:24;;;;;;;5.50;2.30;;;16.90;77.60;;;;;;5013045;28;20053;-62
2023/07/13 09:22:51;;;;;;;4.40;2.05;;;16.90;90.10;;;;;;5011204;28;20065;-62
2023/07/13 09:25:35;;;;;;;5.28;2.13;;;17.00;91.60;;;;;;5014478;28;20038;-62
2023/07/13 09:28:16;;;;;;;5.30;2.45;;;17.10;93.10;;;;;;5014416;28;20451;-62
2023/07/13 09:30:56;;;;;;;5.18;2.53;;;17.10;94.30;;;;;;5013185;28;20501;-62
2023/07/13 09:33:22;;;;;;;3.55;2.03;;;17.20;95.20;;;;;;4996466;28;20046;-62
2023/07/13 09:35:49;;;;;;;5.47;2.33;;;17.20;93.80;;;;;;5014278;28;20413;-63
2023/07/13 09:38:18;;;;;;;4.68;2.50;;;17.10;95.60;;;;;;5014285;28;20050;-62
2023/07/13 09:40:58;;;;;;;5.00;2.83;;;17.20;96.00;;;;;;5014194;28;20486;-62
2023/07/13 09:43:24;;;;;;;5.75;2.92;;;17.20;99.00;;;;;;5012585;28;20046;-62
2023/07/13 09:45:50;;;;;;;6.32;2.97;;;17.10;97.90;;;;;;5014032;28;20042;-62
2023/07/13 09:48:17;;;;;;;7.65;3.05;;;17.10;96.80;;;;;;5012854;28;20037;-62
2023/07/13 09:50:44;;;;;;;4.97;2.58;;;17.20;97.70;;;;;;5014054;28;20460;-62
2023/07/13 09:53:14;;;;;;;6.25;3.20;;;17.30;98.70;;;;;;5013659;28;20038;-62
2023/07/13 09:55:42;;;;;;;7.60;2.72;;;17.40;99.50;;;;;;5014003;28;20040;-62
2023/07/13 09:58:19;;;;;;;7.43;2.53;;;17.50;98.70;;;;;;5013851;28;20046;-62
2023/07/13 10:00:56;;;;;;;4.07;2.55;;;17.50;95.40;;;;;;5013554;28;20049;-62
2023/07/13 10:03:33;;;;;;;5.30;2.13;;;17.60;91.80;;;;;;5013417;28;20133;-62
2023/07/13 10:06:15;;;;;;;6.65;1.95;;;17.70;56.60;;;;;;5013299;28;20379;-63
2023/07/13 10:08:41;;;;;;;3.33;1.98;;;17.90;52.50;;;;;;5012483;28;20061;-63
2023/07/13 10:11:29;;;;;;;4.43;2.03;;;18.20;16.00;;;;;;5013767;28;20033;-62
2023/07/13 10:14:01;;;;;;;4.05;1.83;;;18.50;49.30;;;;;;5013291;28;20038;-63
2023/07/13 10:16:35;;;;;;;2.67;1.80;;;18.80;17.20;;;;;;5013347;28;20038;-62
2023/07/13 10:19:12;;;;;;;3.80;1.90;;;19.10;1.00;;;;;;5012307;28;20096;-63
2023/07/13 10:21:48;;;;;;;3.08;1.75;;;19.20;99.90;;;;;;4995600;28;20045;-62
2023/07/13 10:24:25;;;;;;;3.65;2.00;;;;;;;;;;5013533;28;20038;-62
2023/07/13 10:26:58;;;;;;;3.28;1.90;;;;;;;;;;5013513;28;20125;-62
2023/07/13 10:29:27;;;;;;;3.50;1.42;;;19.70;92.30;;;;;;5013517;28;20456;-62
2023/07/13 10:31:52;;;;;;;4.20;1.83;;;20.10;1.00;;;;;;5013088;28;20049;-63
2023/07/13 10:34:18;;;;;;;2.53;1.45;;;20.10;17.70;;;;;;5013402;28;20046;-62
2023/07/13 10:36:47;;;;;;;2.58;1.60;;;20.40;92.10;;;;;;5013437;28;20065;-62
2023/07/13 10:39:19;;;;;;;4.10;1.90;;;20.30;99.90;;;;;;5013249;28;20092;-62
2023/07/13 10:41:49;;;;;;;3.08;1.40;;;20.40;1.00;;;;;;5013271;28;20052;-62
2023/07/13 10:44:28;;;;;;;3.15;1.60;;;20.10;1.00;;;;;;5012332;28;20429;-62
2023/07/13 10:47:08;;;;;;;3.13;1.55;;;20.10;99.90;;;;;;5011902;28;20467;-62
2023/07/13 10:49:36;;;;;;;2.58;1.75;;;20.00;99.90;;;;;;5013244;28;20109;-62
2023/07/13 10:52:03;;;;;;;5.18;1.65;;;19.80;99.90;;;;;;5011636;28;20061;-62
2023/07/13 10:54:34;;;;;;;5.57;1.92;;;19.40;99.90;;;;;;5013217;28;20048;-62
2023/07/13 10:57:20;;;;;;;5.40;1.90;;;19.30;99.90;;;;;;5012864;28;20033;-62
2023/07/13 10:59:50;;;;;;;3.10;1.60;;;19.20;99.90;;;;;;5012936;28;20080;-62
2023/07/13 11:02:26;;;;;;;2.33;1.58;;;18.60;1.00;;;;;;5012836;28;20042;-62
2023/07/13 11:04:54;;;;;;;3.22;1.40;;;18.10;99.90;;;;;;5011799;28;20073;-62
2023/07/13 11:07:29;;;;;;;5.05;1.52;;;17.80;99.90;;;;;;5012722;28;20054;-62
2023/07/13 11:10:03;;;;;;;4.10;1.90;;;17.90;1.00;;;;;;5012738;28;20038;-62
2023/07/13 11:12:49;;;;;;;2.72;1.80;;;17.40;1.00;;;;;;5013123;28;20452;-62
2023/07/13 11:15:30;;;;;;;3.35;2.00;;;17.30;56.40;;;;;;5011427;28;20077;-62
2023/07/13 11:18:00;;;;;;;;;;;;;;;;;;5012017;28;20049;-62
2023/07/13 11:20:39;;;;;;;2.45;1.70;;;17.00;76.40;;;;;;5016862;28;19924;-62
2023/07/13 11:23:10;;;;;;;3.42;1.85;;;17.00;63.20;;;;;;5016654;28;20083;-62
2023/07/13 11:25:37;;;;;;;4.00;2.08;;;16.90;71.00;;;;;;5016788;28;20045;-62
2023/07/13 11:28:12;;;;;;;4.72;2.35;;;17.00;83.30;;;;;;5016461;28;20092;-62
2023/07/13 11:30:40;;;;;;;3.63;2.13;;;17.00;92.90;;;;;;5016668;28;20042;-62
2023/07/13 11:33:26;;;;;;;4.80;2.40;;;17.10;94.80;;;;;;5016212;28;20052;-65
2023/07/13 11:36:02;;;;;;;4.75;2.33;;;17.30;99.90;;;;;;5016550;28;20405;-62
2023/07/13 11:38:34;;;;;;;4.75;2.28;;;17.40;99.90;;;;;;5016466;28;20117;-62
2023/07/13 11:41:07;;;;;;;4.45;2.17;;;17.50;99.90;;;;;;5016432;28;20049;-62
2023/07/13 11:43:33;;;;;;;5.78;2.45;;;17.70;97.60;;;;;;4998344;28;20046;-62
2023/07/13 11:46:13;;;;;;;4.82;2.25;;;17.90;98.10;;;;;;5015995;28;20042;-62
2023/07/13 11:48:39;;;;;;;3.35;2.30;;;18.30;98.50;;;;;;5016359;28;20064;-63
2023/07/13 11:51:06;;;;;;;3.25;2.03;;;18.50;92.30;;;;;;5016253;28;20085;-62
2023/07/13 11:53:44;;;;;;;5.50;2.30;;;18.70;90.90;;;;;;5014714;28;20045;-62
2023/07/13 11:56:10;;;;;;;2.65;1.60;;;18.80;80.20;;;;;;5015818;28;20038;-63
2023/07/13 11:58:36;;;;;;;6.78;2.60;;;18.80;56.60;;;;;;5016106;28;20440;-62
2023/07/13 12:01:04;;;;;;;1.73;1.48;;;18.90;24.70;;;;;;5014442;28;20045;-62
2023/07/13 12:03:32;;;;;;;4.40;1.80;;;19.00;1.00;;;;;;5014251;28;20061;-62
2023/07/13 12:06:06;;;;;;;3.28;1.55;;;19.00;1.00;;;;;;5015925;28;20073;-62
2023/07/13 12:08:39;;;;;;;2.22;1.55;;;19.00;1.00;;;;;;5015573;28;20042;-62
2023/07/13 12:11:15;;;;;;;2.90;1.70;;;19.00;99.90;;;;;;5015500;28;20079;-62
2023/07/13 12:13:40;;;;;;;8.45;1.90;;;18.90;99.90;;;;;;5015763;28;20536;-62
2023/07/13 12:16:17;;;;;;;2.15;1.50;;;18.90;89.30;;;;;;5015737;28;20042;-62
2023/07/13 12:18:47;;;;;;;2.67;1.55;;;19.00;99.90;;;;;;5015400;28;20046;-63
2023/07/13 12:21:16;;;;;;;;;;;19.20;99.90;;;;;;5016063;28;20500;-65
2023/07/13 12:23:44;;;;;;;4.65;1.70;;;19.40;1.00;;;;;;5015248;28;19976;-62
2023/07/13 12:26:11;;;;;;;4.63;1.75;;;19.70;99.90;;;;;;5015581;28;20485;-62
2023/07/13 12:28:48;;;;;;;2.63;1.40;;;20.00;1.00;;;;;;5015274;28;20049;-63
2023/07/13 12:31:26;;;;;;;4.47;1.27;;;20.20;81.40;;;;;;5015365;28;20038;-63
2023/07/13 12:34:13;;;;;;;3.22;1.10;;;20.40;34.50;;;;;;5015268;28;20042;-63
2023/07/13 12:36:42;;;;;;;1.85;1.00;;;;;;;;;;5014906;28;20042;-63
2023/07/13 12:39:24;;;;;;;5.03;1.27;;;20.70;99.90;;;;;;5015211;28;20053;-64
2023/07/13 12:41:51;;;;;;;4.88;1.23;;;20.90;46.90;;;;;;5015284;28;20379;-63
2023/07/13 12:44:25;;;;;;;2.80;0.98;;;21.10;99.90;;;;;;5015009;28;20038;-63
2023/07/13 12:47:05;;;;;;;2.35;1.00;;;21.30;99.90;;;;;;5013967;28;20367;-68
2023/07/13 12:49:34;;;;;;;1.23;0.82;;;21.30;99.90;;;;;;5014875;28;20048;-64
2023/07/13 12:52:03;;;;;;;3.20;1.10;;;21.30;99.90;;;;;;5015034;28;20046;-68
2023/07/13 12:54:30;;;;;;;2.75;1.33;;;21.40;99.90;;;;;;5013544;28;20081;-63
2023/07/13 12:56:58;;;;;;;2.22;0.73;;;21.40;99.90;;;;;;5013557;28;20092;-63
2023/07/13 12:59:29;;;;;;;2.00;0.98;;;21.40;99.90;;;;;;5014883;28;20470;-64
2023/07/13 13:01:54;;;;;;;1.90;0.82;;;21.30;99.90;;;;;;5014822;28;20400;-64
2023/07/13 13:04:21;;;;;;;1.63;0.98;;;21.40;99.90;;;;;;5014438;28;20093;-64